Weather at Poznań-Ławica Airport

Public forecast

Using degrees Celsius for public forecast. Weather courtesy of forecast.io.

Current aviation weather report (METAR) for Poznań-Ławica Airport

Report is more than 6 hours old.

2022/11/14 15:30 (retrieved 2 years ago)

EPPO 141530Z 10007KT 7000 NSC 06/05 Q1020

Aviation forecast (TAF) for Poznań-Ławica Airport

Forecast is more than 12 hours old.

2023/02/22 18:37 (retrieved 1 year ago)

TAF EPPO 221730Z 2218/2318 09007KT CAVOK BECMG 2309/2312 16010KT